Terminal Aerodrome Forecast
Issued by NWS

Home | Current Version | Previous Version | Text Only | Print | Product List | Glossary On
Versions: 1 2 3 4 5 6 7 8 9 10 11 12 13 14 15 16 17 18 19 20 21 22 23 24 25 26 27
000
FTUS46 KMTR 301452 AAA
TAFSFO
TAF AMD
KSFO 301452Z 3015/0118 30009KT P6SM FEW005 SCT200
     FM301700 29006KT P6SM FEW010 SCT200
     FM302100 29018G23KT P6SM SKC
     FM010400 29010KT P6SM FEW010
     FM010800 30007KT P6SM FEW010=

USA.gov is the U.S. government's official web portal to all federal, state and local government web resources and services.